Time;durP1;ratioP1;P1;durP2;ratioP2;P2;SDS_P1;SDS_P2;PMS_P1;PMS_P2;Temp;Humidity;BMP_temperature;BMP_pressure;BME280_temperature;BME280_humidity;BME280_pressure;Samples;Min_cycle;Max_cycle;Signal;HPM_P1;HPM_P2
2022/12/07 00:01:39;;;;;;;0.10;0.10;;;;;;;6.33;73.31;101992.53;5072216;28;20433;-81
2022/12/07 00:04:07;;;;;;;0.10;0.10;;;;;;;6.31;74.34;101987.22;5064313;28;20035;-81
2022/12/07 00:09:12;;;;;;;0.10;0.10;;;;;;;6.56;74.20;101969.16;5120207;27;1186900;-79
2022/12/07 00:11:39;;;;;;;0.20;0.20;;;;;;;6.61;74.17;101963.97;5137997;27;20352;-81
2022/12/07 00:14:11;;;;;;;0.10;0.10;;;;;;;6.66;74.15;101957.03;5117252;28;20474;-80
2022/12/07 00:16:37;;;;;;;0.20;0.20;;;;;;;6.67;74.27;101958.81;5116562;28;20160;-80
2022/12/07 00:19:04;;;;;;;0.10;0.10;;;;;;;6.68;73.90;101950.03;5114042;28;20081;-80
2022/12/07 00:21:32;;;;;;;0.10;0.10;;;;;;;6.69;73.81;101967.63;5110257;28;20043;-81
2022/12/07 00:23:59;;;;;;;0.20;0.20;;;;;;;6.65;74.15;101971.06;5112046;28;20106;-81
2022/12/07 00:29:05;;;;;;;0.10;0.10;;;;;;;6.65;74.38;101957.88;5131398;27;20966;-80
2022/12/07 00:31:38;;;;;;;0.10;0.10;;;;;;;6.65;74.30;101955.25;5094833;28;20028;-80
2022/12/07 00:34:06;;;;;;;0.73;0.73;;;;;;;6.66;73.78;101951.75;5107065;28;20490;-80
2022/12/07 00:36:32;;;;;;;0.10;0.10;;;;;;;6.64;74.31;101943.84;5110487;28;20054;-81
2022/12/07 00:39:02;;;;;;;0.10;0.10;;;;;;;6.66;73.79;101941.22;5096051;28;20059;-81
2022/12/07 00:41:29;;;;;;;0.10;0.10;;;;;;;6.63;73.71;101941.19;5116352;28;20039;-81
2022/12/07 00:43:55;;;;;;;0.20;0.20;;;;;;;6.58;74.01;101932.31;5106268;28;20470;-81
2022/12/07 00:46:22;;;;;;;0.13;0.13;;;;;;;6.56;73.79;101941.97;5092571;28;20028;-80
2022/12/07 00:48:50;;;;;;;0.10;0.10;;;;;;;6.53;73.49;101941.91;5102093;28;20020;-80
2022/12/07 00:51:18;;;;;;;0.10;0.10;;;;;;;6.50;73.58;101933.97;5098669;28;20036;-81
2022/12/07 00:53:44;;;;;;;0.10;0.10;;;;;;;6.47;73.59;101940.97;5112738;28;20047;-81
2022/12/07 00:56:15;;;;;;;0.10;0.10;;;;;;;6.44;73.39;101950.56;5113001;28;20032;-81
2022/12/07 00:58:41;;;;;;;0.10;0.10;;;;;;;6.36;73.70;101942.56;5112519;28;20019;-81
2022/12/07 01:01:09;;;;;;;0.10;0.10;;;;;;;6.39;73.82;101939.97;5101169;28;20032;-81
2022/12/07 01:03:38;;;;;;;0.10;0.10;;;;;;;6.44;73.59;101951.47;5106784;28;20034;-81
2022/12/07 01:06:04;;;;;;;0.10;0.10;;;;;;;6.50;73.57;101947.16;5114181;28;20575;-81
2022/12/07 01:08:31;;;;;;;0.10;0.10;;;;;;;6.54;73.89;101941.97;5105023;28;20036;-81
2022/12/07 01:11:03;;;;;;;0.10;0.10;;;;;;;6.57;73.90;101949.88;5107277;28;20064;-81
2022/12/07 01:13:29;;;;;;;0.10;0.10;;;;;;;6.63;73.76;101951.72;5106619;28;20032;-81
2022/12/07 01:15:59;;;;;;;0.10;0.10;;;;;;;6.64;74.08;101950.84;5113270;28;20558;-81
2022/12/07 01:18:26;;;;;;;0.20;0.20;;;;;;;6.62;74.34;101955.22;5090401;28;20082;-81
2022/12/07 01:23:58;;;;;;;0.10;0.10;;;;;;;6.63;74.39;101946.47;5104520;27;20148;-81
2022/12/07 01:26:25;;;;;;;0.10;0.10;;;;;;;6.67;74.05;101952.63;5093358;28;20619;-80
2022/12/07 01:28:51;;;;;;;0.10;0.10;;;;;;;6.72;73.71;101958.88;5092588;28;20111;-79
2022/12/07 01:31:20;;;;;;;0.17;0.17;;;;;;;6.70;73.90;101958.81;5093670;28;20367;-80
2022/12/07 01:33:50;;;;;;;0.10;0.10;;;;;;;6.70;73.74;101953.56;5086443;28;20145;-80
2022/12/07 01:36:21;;;;;;;0.10;0.10;;;;;;;6.69;73.61;101954.44;5095331;28;20047;-81
2022/12/07 01:38:51;;;;;;;0.20;0.20;;;;;;;6.66;73.81;101949.13;5095289;28;20024;-80
2022/12/07 01:41:18;;;;;;;0.10;0.10;;;;;;;6.67;73.70;101952.63;5096146;28;20036;-81
2022/12/07 01:47:00;;;;;;;0.10;0.10;;;;;;;6.66;73.70;101933.31;5075630;28;20378;-80
2022/12/07 01:49:33;;;;;;;0.10;0.10;;;;;;;6.69;73.54;101933.38;5067652;28;20033;-81
2022/12/07 01:52:20;;;;;;;0.10;0.10;;;;;;;6.72;73.42;101940.44;5061132;28;20044;-81
2022/12/07 01:54:50;;;;;;;0.10;0.10;;;;;;;6.64;73.15;101940.31;5055270;28;20022;-81
2022/12/07 01:57:17;;;;;;;0.20;0.20;;;;;;;6.61;73.40;101937.66;5063951;28;20032;-81
2022/12/07 01:59:47;;;;;;;0.10;0.10;;;;;;;6.61;73.43;101937.66;5062255;28;20036;-80
2022/12/07 02:02:20;;;;;;;0.10;0.10;;;;;;;6.63;73.28;101931.53;5074720;28;20023;-80
2022/12/07 02:04:46;;;;;;;0.10;0.10;;;;;;;6.64;73.31;101940.31;5057481;28;20040;-81
2022/12/07 02:07:13;;;;;;;0.10;0.10;;;;;;;6.63;73.18;101934.16;5057284;28;20033;-81
2022/12/07 02:09:39;;;;;;;0.10;0.10;;;;;;;6.64;73.50;101938.56;5059251;28;20040;-81
2022/12/07 02:12:06;;;;;;;0.10;0.10;;;;;;;6.63;73.30;101931.53;5072220;28;20682;-81
2022/12/07 02:14:33;;;;;;;0.17;0.17;;;;;;;6.64;73.19;101942.94;5072677;28;20463;-81
2022/12/07 02:17:24;;;;;;;0.10;0.10;;;;;;;6.68;73.18;101939.50;5064017;28;20021;-81
2022/12/07 02:20:23;;;;;;;0.10;0.10;;;;;;;6.73;72.98;101932.56;5072307;28;20090;-81
2022/12/07 02:23:23;;;;;;;0.10;0.10;;;;;;;6.69;72.94;101930.75;5052130;28;20108;-81
2022/12/07 02:26:18;;;;;;;0.10;0.10;;;;;;;6.63;72.90;101926.28;5059896;28;20063;-81
2022/12/07 02:29:08;;;;;;;0.10;0.10;;;;;;;6.68;72.60;101928.06;5066562;28;20037;-81
2022/12/07 02:31:36;;;;;;;0.13;0.13;;;;;;;6.65;72.64;101928.91;5084820;28;20088;-81
2022/12/07 02:34:10;;;;;;;0.10;0.10;;;;;;;6.68;72.42;101933.34;5069435;28;20427;-80
2022/12/07 02:36:43;;;;;;;0.10;0.10;;;;;;;6.64;72.54;101932.41;5068240;28;20450;-82
2022/12/07 02:39:24;;;;;;;0.20;0.20;;;;;;;6.69;72.13;101925.47;5060286;28;20101;-82
2022/12/07 02:41:57;;;;;;;0.10;0.10;;;;;;;6.69;72.31;101919.31;5060333;28;20064;-81
2022/12/07 02:44:27;;;;;;;0.10;0.10;;;;;;;6.68;72.39;101917.53;5067094;28;20029;-82
2022/12/07 02:47:02;;;;;;;0.20;0.20;;;;;;;6.70;72.19;101926.34;5048531;28;20052;-81
2022/12/07 02:49:30;;;;;;;0.10;0.10;;;;;;;6.65;72.12;101913.13;5073783;28;20356;-81
2022/12/07 02:51:56;;;;;;;0.10;0.10;;;;;;;6.64;72.53;101913.97;5066375;28;20505;-80
2022/12/07 02:54:22;;;;;;;0.10;0.10;;;;;;;6.64;72.14;101911.34;5053131;28;20048;-81
2022/12/07 02:56:57;;;;;;;0.10;0.10;;;;;;;6.64;72.23;101906.06;5061719;28;20077;-81
2022/12/07 03:05:16;;;;;;;0.10;0.10;;;;;;;6.63;72.18;101925.41;5179578;27;20446;-79
2022/12/07 03:10:43;;;;;;;0.10;0.10;;;;;;;6.61;72.46;101927.97;5156982;27;20389;-80
2022/12/07 03:13:21;;;;;;;0.10;0.10;;;;;;;6.59;72.62;101923.56;5157360;27;20434;-80
2022/12/07 03:16:10;;;;;;;0.10;0.10;;;;;;;6.66;72.69;101920.16;5157712;27;20027;-80
2022/12/07 03:18:44;;;;;;;0.10;0.10;;;;;;;6.60;72.49;101925.34;5157070;27;20038;-79
2022/12/07 03:21:15;;;;;;;0.15;0.15;;;;;;;6.56;72.78;101920.91;5152391;27;20027;-80
2022/12/07 03:23:45;;;;;;;0.20;0.20;;;;;;;6.51;72.71;101915.56;5141266;27;20023;-79
2022/12/07 03:26:14;;;;;;;0.10;0.10;;;;;;;6.46;72.51;101917.25;5149847;27;20099;-81
2022/12/07 03:28:48;;;;;;;0.10;0.10;;;;;;;6.42;72.60;101921.59;5150767;27;20022;-79
2022/12/07 03:31:22;;;;;;;0.10;0.10;;;;;;;6.37;72.46;101907.47;5170519;27;20051;-79
2022/12/07 03:33:59;;;;;;;0.10;0.10;;;;;;;6.34;72.45;101907.41;5144607;27;20024;-78
2022/12/07 03:36:34;;;;;;;0.10;0.10;;;;;;;6.31;72.42;101920.53;5143011;27;20027;-79
2022/12/07 03:39:17;;;;;;;0.10;0.10;;;;;;;6.30;72.75;101927.53;5143744;27;20030;-79
2022/12/07 03:41:44;;;;;;;;;;;;;;;6.40;72.78;101918.03;5149717;27;20019;-80
2022/12/07 03:44:10;;;;;;;0.10;0.10;;;;;;;6.33;73.02;101921.47;5148095;28;19971;-79
2022/12/07 03:49:25;;;;;;;0.10;0.10;;;;;;;6.48;73.06;101905.00;5125852;27;1193846;-79
2022/12/07 03:55:00;;;;;;;0.10;0.10;;;;;;;6.56;73.25;101898.06;5113920;27;20331;-80
2022/12/07 03:57:29;;;;;;;0.10;0.10;;;;;;;6.57;73.26;101891.94;5095999;28;20038;-79
2022/12/07 03:59:56;;;;;;;0.10;0.10;;;;;;;6.59;72.71;101892.88;5108333;28;20027;-80
2022/12/07 04:02:25;;;;;;;0.10;0.10;;;;;;;6.63;72.72;101892.03;5094111;28;20017;-81
2022/12/07 04:04:52;;;;;;;0.10;0.10;;;;;;;6.66;72.48;101890.31;5094070;28;20024;-80
2022/12/07 04:07:18;;;;;;;0.10;0.10;;;;;;;6.66;72.37;101891.19;5096651;28;20031;-80
2022/12/07 04:09:44;;;;;;;0.10;0.10;;;;;;;6.67;72.26;101890.31;5110440;28;20503;-80
2022/12/07 04:12:10;;;;;;;0.28;0.28;;;;;;;6.70;72.23;101892.13;5121273;28;20024;-80
2022/12/07 04:14:37;;;;;;;0.10;0.10;;;;;;;6.69;72.10;101893.88;5113974;27;20444;-80
2022/12/07 04:17:03;;;;;;;0.10;0.10;;;;;;;6.66;72.19;101888.56;5108803;28;20032;-80
2022/12/07 04:19:32;;;;;;;0.10;0.10;;;;;;;6.63;71.78;101893.78;5112935;28;20405;-80
2022/12/07 04:22:00;;;;;;;0.10;0.10;;;;;;;6.57;71.78;101888.44;5114974;27;20031;-80
2022/12/07 04:24:27;;;;;;;0.10;0.10;;;;;;;6.52;71.98;101891.00;5119698;28;20020;-80
2022/12/07 04:26:54;;;;;;;0.10;0.10;;;;;;;6.48;71.75;101889.22;5117491;28;20390;-80
2022/12/07 04:29:21;;;;;;;0.10;0.10;;;;;;;6.41;71.87;101888.22;5117365;28;20080;-80
2022/12/07 04:31:47;;;;;;;0.10;0.10;;;;;;;6.38;71.76;101882.03;5105233;28;20119;-80
2022/12/07 04:34:14;;;;;;;0.10;0.10;;;;;;;6.32;71.49;101881.06;5110469;27;20035;-80
2022/12/07 04:36:41;;;;;;;0.20;0.20;;;;;;;6.29;71.59;101877.50;5115475;28;20077;-80
2022/12/07 04:39:19;;;;;;;0.10;0.10;;;;;;;6.27;71.77;101879.25;5115991;28;20032;-80
2022/12/07 04:41:45;;;;;;;0.10;0.10;;;;;;;6.25;71.78;101892.38;5107237;28;20036;-81
2022/12/07 04:44:14;;;;;;;0.68;0.68;;;;;;;6.26;71.87;101891.50;5112844;28;20055;-79
2022/12/07 04:46:41;;;;;;;0.10;0.10;;;;;;;6.24;72.07;101906.41;5104391;28;20051;-79
2022/12/07 04:49:08;;;;;;;0.13;0.13;;;;;;;6.06;73.00;101906.13;5115066;28;20488;-79
2022/12/07 04:51:34;;;;;;;0.10;0.10;;;;;;;6.08;73.25;101913.19;5103845;28;20024;-79
2022/12/07 04:54:00;;;;;;;0.10;0.10;;;;;;;6.19;72.98;101897.53;5100353;27;20059;-79
2022/12/07 04:56:26;;;;;;;0.10;0.10;;;;;;;6.24;73.16;101885.38;5110317;28;20132;-80
2022/12/07 04:58:53;;;;;;;0.10;0.10;;;;;;;6.34;73.13;101873.19;5113909;28;20020;-79
2022/12/07 05:01:21;;;;;;;0.10;0.10;;;;;;;6.38;73.19;101875.03;5114434;28;20024;-80
2022/12/07 05:03:47;;;;;;;0.10;0.10;;;;;;;6.35;72.75;101867.06;5114344;28;20450;-80
2022/12/07 05:06:13;;;;;;;0.10;0.10;;;;;;;6.41;72.80;101872.41;5101671;28;20479;-79
2022/12/07 05:08:40;;;;;;;0.15;0.15;;;;;;;6.41;72.72;101863.66;5087733;28;20546;-80
2022/12/07 05:11:07;;;;;;;0.10;0.10;;;;;;;6.39;72.72;101861.00;5102231;28;20421;-80
2022/12/07 05:13:34;;;;;;;0.10;0.10;;;;;;;6.39;72.84;101861.00;5100559;28;20085;-80
2022/12/07 05:16:01;;;;;;;0.00;0.00;;;;;;;6.36;72.59;101862.72;5100139;28;20169;-80
2022/12/07 05:18:27;;;;;;;0.20;0.20;;;;;;;6.32;72.39;101862.66;5099027;28;20103;-80
2022/12/07 05:20:53;;;;;;;0.10;0.10;;;;;;;6.28;72.44;101860.84;5099199;28;20034;-80
2022/12/07 05:23:20;;;;;;;0.10;0.10;;;;;;;6.27;72.31;101858.19;5103652;28;20640;-80
2022/12/07 05:25:47;;;;;;;0.10;0.10;;;;;;;6.21;72.10;101855.47;5108504;28;20020;-81
2022/12/07 05:28:13;;;;;;;0.10;0.10;;;;;;;6.18;72.19;101864.22;5101306;28;20096;-82
2022/12/07 05:30:39;;;;;;;0.10;0.10;;;;;;;6.19;72.22;101865.09;5096089;28;20075;-81
2022/12/07 05:33:05;;;;;;;0.10;0.10;;;;;;;6.21;72.25;101863.38;5099251;28;20115;-81
2022/12/07 05:35:31;;;;;;;0.10;0.10;;;;;;;6.20;72.38;101867.72;5100263;28;20039;-80
2022/12/07 05:37:58;;;;;;;0.10;0.10;;;;;;;6.22;72.30;101866.03;5088721;28;20044;-80
2022/12/07 05:40:24;;;;;;;0.10;0.10;;;;;;;6.22;72.21;101867.75;5094997;28;20020;-80
2022/12/07 05:42:50;;;;;;;0.10;0.10;;;;;;;6.24;72.23;101866.94;5101305;28;20024;-81
2022/12/07 05:45:16;;;;;;;0.10;0.10;;;;;;;6.29;72.30;101872.25;5096582;28;20036;-81
2022/12/07 05:47:42;;;;;;;0.10;0.10;;;;;;;6.33;72.46;101868.81;5099091;28;20039;-80
2022/12/07 05:50:08;;;;;;;0.20;0.20;;;;;;;6.35;72.46;101880.22;5099473;28;20039;-80
2022/12/07 05:52:35;;;;;;;0.10;0.10;;;;;;;6.35;72.45;101877.59;5099988;28;21339;-79
2022/12/07 05:55:01;;;;;;;0.10;0.10;;;;;;;6.33;72.41;101881.97;5099003;28;20089;-80
2022/12/07 05:57:27;;;;;;;0.10;0.10;;;;;;;6.31;72.42;101876.66;5099872;28;20027;-79
2022/12/07 05:59:53;;;;;;;0.10;0.10;;;;;;;6.27;72.61;101863.47;5099388;28;20112;-80
2022/12/07 06:02:19;;;;;;;0.10;0.10;;;;;;;6.27;72.71;101874.00;5098221;28;20032;-80
2022/12/07 06:04:46;;;;;;;0.10;0.10;;;;;;;6.26;72.59;101872.22;5098314;28;20024;-80
2022/12/07 06:07:15;;;;;;;0.10;0.10;;;;;;;6.23;72.58;101867.81;5095047;28;20025;-79
2022/12/07 06:09:42;;;;;;;0.10;0.10;;;;;;;6.20;72.52;101866.88;5088225;28;20028;-80
2022/12/07 06:12:42;;;;;;;0.10;0.10;;;;;;;6.17;72.32;101877.34;5085087;28;20020;-81
2022/12/07 06:14:56;;;;;;;0.10;0.10;;;;;;;6.14;72.44;101876.44;5095571;28;20097;-80
2022/12/07 06:17:22;;;;;;;0.10;0.10;;;;;;;6.10;72.35;101871.97;5093801;28;20039;-81
2022/12/07 06:19:49;;;;;;;0.10;0.10;;;;;;;6.05;72.19;101873.66;5100630;28;20080;-81
2022/12/07 06:22:16;;;;;;;0.10;0.10;;;;;;;5.99;71.98;101876.19;5098939;28;20024;-79
2022/12/07 06:24:42;;;;;;;0.20;0.20;;;;;;;5.97;72.11;101870.00;5095408;28;20020;-81
2022/12/07 06:27:08;;;;;;;0.20;0.20;;;;;;;5.91;72.13;101868.16;5089695;28;20053;-80
2022/12/07 06:29:35;;;;;;;0.10;0.10;;;;;;;5.84;72.00;101868.91;5085651;28;20032;-80
2022/12/07 06:32:01;;;;;;;0.10;0.10;;;;;;;5.80;71.82;101873.22;5090728;28;20029;-80
2022/12/07 06:34:27;;;;;;;0.10;0.10;;;;;;;5.75;71.97;101874.91;5078349;28;20035;-80
2022/12/07 06:36:54;;;;;;;1.08;0.85;;;;;;;5.70;71.76;101871.31;5094013;28;20035;-81
2022/12/07 06:39:23;;;;;;;0.10;0.10;;;;;;;5.66;71.99;101872.13;5083377;28;20056;-77
2022/12/07 06:41:51;;;;;;;0.10;0.10;;;;;;;5.60;71.88;101875.53;5084955;28;20107;-78
2022/12/07 06:44:18;;;;;;;0.10;0.10;;;;;;;5.60;71.99;101879.91;5094516;28;20664;-79
2022/12/07 06:46:44;;;;;;;0.20;0.20;;;;;;;5.58;72.11;101876.38;5091654;28;20028;-79
2022/12/07 06:49:11;;;;;;;0.15;0.15;;;;;;;5.57;72.24;101879.84;5083237;28;20057;-79
2022/12/07 06:51:40;;;;;;;0.10;0.10;;;;;;;5.58;72.00;101892.13;5083207;28;20032;-78
2022/12/07 06:54:07;;;;;;;0.10;0.10;;;;;;;5.60;72.13;101898.31;5078957;28;20035;-79
2022/12/07 06:56:33;;;;;;;0.10;0.10;;;;;;;5.64;72.39;101902.75;5082634;28;20020;-79
2022/12/07 06:58:59;;;;;;;0.10;0.10;;;;;;;5.66;72.69;101901.06;5090398;28;20413;-79
2022/12/07 07:01:25;;;;;;;0.30;0.30;;;;;;;5.70;72.80;101907.25;5081723;28;20066;-78
2022/12/07 07:03:52;;;;;;;0.10;0.10;;;;;;;5.74;72.85;101899.44;5087410;28;20032;-78
2022/12/07 07:06:18;;;;;;;0.20;0.20;;;;;;;5.77;73.00;101898.59;5087963;28;20564;-78
2022/12/07 07:08:44;;;;;;;0.10;0.10;;;;;;;5.79;73.05;101887.22;5091514;28;20038;-78
2022/12/07 07:11:11;;;;;;;0.17;0.17;;;;;;;5.82;73.17;101887.31;5076091;28;20097;-79
2022/12/07 07:13:37;;;;;;;0.15;0.15;;;;;;;5.84;73.19;101884.69;5088856;28;20036;-80
2022/12/07 07:16:04;;;;;;;0.20;0.20;;;;;;;5.82;73.35;101897.81;5091766;28;20122;-80
2022/12/07 07:18:30;;;;;;;0.10;0.10;;;;;;;5.79;73.05;101891.63;5080870;28;20028;-79
2022/12/07 07:20:57;;;;;;;0.13;0.13;;;;;;;5.75;73.10;101888.06;5080481;28;20067;-79
2022/12/07 07:23:23;;;;;;;0.10;0.10;;;;;;;5.71;73.01;101890.59;5085075;28;20405;-80
2022/12/07 07:25:50;;;;;;;0.20;0.20;;;;;;;5.64;73.01;101887.84;5084995;28;20121;-79
2022/12/07 07:28:17;;;;;;;0.20;0.20;;;;;;;5.61;72.76;101892.22;5083495;28;20661;-79
2022/12/07 07:30:43;;;;;;;0.10;0.10;;;;;;;5.59;73.06;101878.13;5073794;28;20020;-79
2022/12/07 07:33:10;;;;;;;0.10;0.10;;;;;;;5.57;73.02;101880.75;5074761;28;20550;-79
2022/12/07 07:35:36;;;;;;;0.10;0.10;;;;;;;5.54;73.06;101885.06;5075150;28;20029;-79
2022/12/07 07:38:03;;;;;;;0.17;0.17;;;;;;;5.50;72.99;101886.75;5074879;28;20028;-79
2022/12/07 07:40:29;;;;;;;0.10;0.10;;;;;;;5.48;72.72;101891.09;5076992;28;20032;-79
2022/12/07 07:42:56;;;;;;;0.20;0.20;;;;;;;5.43;72.93;101883.16;5077162;28;20103;-78
2022/12/07 07:45:24;;;;;;;0.10;0.10;;;;;;;5.40;72.73;101888.31;5080153;28;20026;-79
2022/12/07 07:47:51;;;;;;;0.10;0.10;;;;;;;5.36;72.71;101897.03;5087544;28;20036;-79
2022/12/07 07:50:18;;;;;;;0.10;0.10;;;;;;;5.37;72.64;101901.44;5078556;28;20036;-79
2022/12/07 07:52:45;;;;;;;0.10;0.10;;;;;;;5.38;72.57;101894.41;5073976;28;20032;-79
2022/12/07 07:55:11;;;;;;;0.13;0.13;;;;;;;5.39;72.84;101899.69;5077734;28;20020;-79
2022/12/07 07:57:39;;;;;;;0.10;0.10;;;;;;;5.42;73.08;101891.88;5075617;28;20032;-79
2022/12/07 08:00:09;;;;;;;0.10;0.10;;;;;;;5.50;73.16;101905.16;5079478;28;20055;-79
2022/12/07 08:02:35;;;;;;;0.10;0.10;;;;;;;5.54;73.19;101900.84;5077450;28;20036;-78
2022/12/07 08:05:02;;;;;;;1.75;1.65;;;;;;;5.55;73.69;101890.34;5073710;28;20060;-78
2022/12/07 08:07:28;;;;;;;0.10;0.10;;;;;;;5.61;73.89;101893.09;5083258;28;20123;-78
2022/12/07 08:09:55;;;;;;;3.42;1.38;;;;;;;5.67;74.00;101892.31;5081812;28;20432;-78
2022/12/07 08:12:21;;;;;;;0.20;0.20;;;;;;;5.71;74.14;101893.22;5075298;28;20024;-79
2022/12/07 08:14:47;;;;;;;0.13;0.13;;;;;;;5.76;73.92;101889.81;5090620;28;20461;-79
2022/12/07 08:17:13;;;;;;;0.20;0.20;;;;;;;5.80;74.03;101893.41;5079162;28;20032;-79
2022/12/07 08:19:39;;;;;;;0.13;0.13;;;;;;;5.82;74.08;101892.56;5082456;28;20398;-79
2022/12/07 08:22:05;;;;;;;0.20;0.20;;;;;;;5.85;73.62;101890.84;5073726;28;20033;-79
2022/12/07 08:24:34;;;;;;;0.10;0.10;;;;;;;5.86;73.99;101892.59;5073330;28;20038;-79
2022/12/07 08:27:00;;;;;;;0.10;0.10;;;;;;;5.83;73.97;101891.72;5077319;28;20073;-78
2022/12/07 08:29:26;;;;;;;0.10;0.10;;;;;;;5.85;73.70;101896.13;5085035;28;20071;-79
2022/12/07 08:31:52;;;;;;;0.10;0.10;;;;;;;5.87;73.67;101891.75;5089546;28;20457;-78
2022/12/07 08:34:18;;;;;;;0.10;0.10;;;;;;;5.90;73.53;101895.31;5079936;28;20021;-82
2022/12/07 08:36:45;;;;;;;0.20;0.20;;;;;;;5.97;73.61;101905.06;5077069;28;20032;-79
2022/12/07 08:39:11;;;;;;;0.10;0.10;;;;;;;6.04;73.72;101908.72;5077812;28;20043;-79
2022/12/07 08:41:37;;;;;;;0.10;0.10;;;;;;;6.11;73.59;101914.97;5083564;28;20558;-79
2022/12/07 08:44:03;;;;;;;0.40;0.40;;;;;;;6.15;73.87;101911.53;5080136;28;20025;-79
2022/12/07 08:49:33;;;;;;;0.20;0.20;;;;;;;6.36;73.76;101897.81;5065060;28;20388;-79
2022/12/07 08:51:59;;;;;;;0.20;0.20;;;;;;;6.40;73.86;101902.25;5051677;28;20037;-79
2022/12/07 08:54:25;;;;;;;0.10;0.10;;;;;;;6.48;73.83;101895.34;5051387;28;20053;-79
2022/12/07 08:56:53;;;;;;;0.20;0.20;;;;;;;6.58;73.97;101898.09;5049428;28;20384;-79
2022/12/07 08:59:20;;;;;;;0.15;0.15;;;;;;;6.63;73.85;101896.44;5051559;28;20079;-79
2022/12/07 09:01:46;;;;;;;0.10;0.10;;;;;;;6.68;74.01;101886.84;5051636;28;20100;-78
2022/12/07 09:04:12;;;;;;;0.10;0.10;;;;;;;6.70;73.70;101890.34;5051465;28;20090;-78
2022/12/07 09:06:39;;;;;;;0.10;0.10;;;;;;;6.72;73.71;101893.91;5050087;28;20039;-77
2022/12/07 09:09:06;;;;;;;0.10;0.10;;;;;;;6.73;73.50;101892.13;5049689;28;20040;-77
2022/12/07 09:11:32;;;;;;;0.10;0.10;;;;;;;6.75;73.26;101891.31;5051778;28;20476;-79
2022/12/07 09:13:58;;;;;;;0.20;0.20;;;;;;;6.79;73.36;101885.22;5058112;28;20021;-79
2022/12/07 09:16:24;;;;;;;0.35;0.35;;;;;;;6.87;73.68;101887.06;5052270;28;20037;-79
2022/12/07 09:18:50;;;;;;;0.10;0.10;;;;;;;6.95;73.28;101888.03;5051950;28;20112;-79
2022/12/07 09:21:16;;;;;;;0.10;0.10;;;;;;;7.05;73.47;101884.66;5046178;28;20116;-79
2022/12/07 09:23:43;;;;;;;0.10;0.10;;;;;;;7.13;73.25;101893.50;5051463;28;20029;-79
2022/12/07 09:26:09;;;;;;;0.20;0.20;;;;;;;7.22;73.58;101905.03;5046485;28;20036;-78
2022/12/07 09:28:35;;;;;;;0.10;0.10;;;;;;;7.25;72.87;101910.31;5049748;28;20067;-78
2022/12/07 09:31:03;;;;;;;0.10;0.10;;;;;;;7.24;72.35;101903.28;5047815;28;20041;-78
2022/12/07 09:33:29;;;;;;;0.20;0.20;;;;;;;7.22;72.93;101898.00;5051002;28;20029;-79
2022/12/07 09:35:55;;;;;;;0.10;0.10;;;;;;;7.20;72.76;101885.66;5047288;28;20112;-79
2022/12/07 09:38:21;;;;;;;0.10;0.10;;;;;;;7.23;72.16;101896.25;5051556;28;20028;-82
2022/12/07 09:40:48;;;;;;;0.20;0.20;;;;;;;7.22;72.55;101895.34;5051027;28;20108;-81
2022/12/07 09:43:19;;;;;;;0.10;0.10;;;;;;;7.22;72.18;101897.13;5051241;28;20037;-81
2022/12/07 09:45:47;;;;;;;0.10;0.10;;;;;;;7.19;72.00;101895.34;5049986;28;20029;-81
2022/12/07 09:48:20;;;;;;;0.10;0.10;;;;;;;7.22;72.07;101895.34;5044241;28;20056;-81
2022/12/07 09:50:48;;;;;;;0.10;0.10;;;;;;;7.19;71.74;101891.81;5043896;28;20029;-81
2022/12/07 09:53:26;;;;;;;0.10;0.10;;;;;;;7.21;72.21;101892.72;5045078;28;20038;-81
2022/12/07 09:55:53;;;;;;;2.92;0.63;;;;;;;7.13;72.04;101890.00;5043933;28;20030;-81
2022/12/07 09:58:28;;;;;;;0.10;0.10;;;;;;;7.13;71.73;101887.38;5061301;28;20099;-81
2022/12/07 10:00:59;;;;;;;0.10;0.10;;;;;;;7.09;72.15;101883.81;5045576;28;20026;-81
2022/12/07 10:03:28;;;;;;;0.10;0.10;;;;;;;7.05;72.11;101879.38;5032801;28;20494;-81
2022/12/07 10:05:55;;;;;;;0.10;0.10;;;;;;;7.01;72.02;101880.19;5036129;28;20403;-81
2022/12/07 10:08:21;;;;;;;0.20;0.20;;;;;;;7.00;72.20;101877.53;5034614;28;20032;-81
2022/12/07 10:10:53;;;;;;;0.20;0.20;;;;;;;7.04;72.25;101874.97;5037939;28;20032;-82
2022/12/07 10:13:22;;;;;;;1.23;1.23;;;;;;;7.10;72.28;101876.78;5037893;28;20083;-82
2022/12/07 10:15:54;;;;;;;0.10;0.10;;;;;;;7.19;72.26;101878.63;5037892;28;20028;-81
2022/12/07 10:18:41;;;;;;;0.20;0.20;;;;;;;7.35;72.82;101875.31;5037433;28;20029;-81
2022/12/07 10:21:24;;;;;;;0.10;0.10;;;;;;;7.48;72.41;101878.94;5033478;28;20040;-81
2022/12/07 10:32:06;;;;;;;0.10;0.10;;;;;;;7.75;72.57;101865.09;5100134;27;20134;-79
2022/12/07 10:39:53;;;;;;;0.10;0.10;;;;;;;7.71;72.36;101854.50;5071775;28;20375;-80
2022/12/07 10:42:27;;;;;;;0.20;0.20;;;;;;;7.73;71.99;101856.28;5052150;28;20037;-80
2022/12/07 10:45:15;;;;;;;0.30;0.30;;;;;;;7.80;71.77;101857.22;5052547;28;20059;-80
2022/12/07 10:51:00;;;;;;;0.10;0.10;;;;;;;8.00;72.47;101848.56;5128397;27;1194683;-84
2022/12/07 11:02:17;;;;;;;0.20;0.20;;;;;;;8.29;71.45;101835.56;5064383;28;20413;-81
2022/12/07 11:13:42;;;;;;;0.10;0.10;;;;;;;8.12;71.42;101816.09;5129272;27;20403;-80
2022/12/07 11:16:28;;;;;;;0.10;0.10;;;;;;;8.17;71.02;101815.22;5101842;28;20024;-80
2022/12/07 11:21:48;;;;;;;0.10;0.10;;;;;;;8.32;71.51;101809.16;5125578;27;20384;-79
2022/12/07 11:24:17;;;;;;;0.10;0.10;;;;;;;8.36;71.16;101800.38;5123612;28;20095;-80
2022/12/07 11:32:29;;;;;;;0.20;0.20;;;;;;;8.77;71.26;101800.56;5098383;27;1209581;-85
2022/12/07 11:37:47;;;;;;;0.15;0.15;;;;;;;8.98;70.74;101783.88;5066385;27;20398;-85
2022/12/07 11:43:20;;;;;;;0.10;0.10;;;;;;;9.27;70.84;101780.38;5103473;27;1912820;-80
2022/12/07 11:46:04;;;;;;;0.20;0.20;;;;;;;9.35;70.21;101779.50;5122427;28;20032;-80
2022/12/07 11:48:38;;;;;;;0.20;0.20;;;;;;;9.37;68.49;101766.25;5115080;28;20023;-80
2022/12/07 11:51:09;;;;;;;0.10;0.10;;;;;;;9.41;69.20;101767.13;5113779;28;20028;-81
2022/12/07 11:53:43;;;;;;;0.20;0.20;;;;;;;9.42;69.68;101750.41;5113326;28;20043;-80
2022/12/07 11:56:13;;;;;;;0.40;0.40;;;;;;;9.38;67.54;101758.34;5100210;28;20437;-80
2022/12/07 11:59:04;;;;;;;0.10;0.10;;;;;;;9.40;66.54;101755.69;5111644;28;20044;-80
2022/12/07 12:07:07;;;;;;;0.20;0.20;;;;;;;9.28;68.14;101751.28;5089858;27;20362;-81
2022/12/07 12:09:56;;;;;;;0.10;0.10;;;;;;;9.26;67.39;101754.81;5063959;28;20147;-80
2022/12/07 12:12:42;;;;;;;0.57;0.57;;;;;;;9.28;68.40;101753.03;5062223;28;20453;-81
2022/12/07 12:20:47;;;;;;;0.10;0.10;;;;;;;9.14;67.62;101758.34;5125075;27;20970;-79
2022/12/07 12:23:18;;;;;;;0.10;0.10;;;;;;;8.98;65.95;101757.44;5110746;28;20388;-79
2022/12/07 12:25:48;;;;;;;0.10;0.10;;;;;;;8.97;67.44;101751.28;5093554;28;20772;-79
2022/12/07 12:28:26;;;;;;;0.10;0.10;;;;;;;8.93;67.92;101748.63;5095130;28;20055;-79
2022/12/07 12:33:54;;;;;;;0.10;0.10;;;;;;;8.65;67.42;101752.09;5108143;27;20382;-79
2022/12/07 12:36:26;;;;;;;0.10;0.10;;;;;;;8.57;67.61;101756.47;5092182;28;20043;-79
2022/12/07 12:49:35;;;;;;;0.20;0.20;;;;;;;8.49;67.31;101735.31;5058259;28;20398;-79
2022/12/07 12:57:39;;;;;;;0.10;0.10;;;;;;;8.45;66.26;101719.41;5150904;27;20392;-80
2022/12/07 13:00:28;;;;;;;0.10;0.10;;;;;;;8.59;67.07;101707.16;5143117;27;20133;-80
2022/12/07 13:02:59;;;;;;;0.15;0.15;;;;;;;8.67;67.38;101710.72;5148835;27;20023;-79
2022/12/07 13:05:29;;;;;;;0.10;0.10;;;;;;;8.79;67.21;101708.97;5119119;27;20030;-80
2022/12/07 13:10:40;;;;;;;0.75;0.75;;;;;;;8.95;66.90;101701.91;5137281;27;20417;-80
2022/12/07 13:15:54;;;;;;;0.10;0.10;;;;;;;9.17;66.50;101695.78;5095092;27;20907;-79
2022/12/07 13:26:38;;;;;;;0.10;0.10;;;;;;;9.46;64.13;101691.31;5169241;27;20325;-80
2022/12/07 13:34:41;;;;;;;0.13;0.13;;;;;;;9.36;63.83;101685.19;5103449;27;1298399;-80
2022/12/07 13:39:51;;;;;;;0.20;0.20;;;;;;;9.19;62.78;101682.53;5111689;27;1199633;-81
2022/12/07 13:44:58;;;;;;;4.05;1.38;;;;;;;9.20;64.82;101671.09;5101184;27;20461;-81
2022/12/07 13:47:36;;;;;;;0.10;0.10;;;;;;;9.23;65.20;101676.34;5083359;28;20032;-80
2022/12/07 13:50:22;;;;;;;1.08;1.08;;;;;;;9.18;65.20;101676.38;5085216;28;20378;-80
2022/12/07 13:52:48;;;;;;;0.15;0.15;;;;;;;9.19;64.77;101671.97;5080980;28;20024;-80
2022/12/07 13:55:17;;;;;;;0.10;0.10;;;;;;;9.19;64.31;101667.53;5089359;28;20032;-80
2022/12/07 13:57:46;;;;;;;0.10;0.10;;;;;;;9.21;65.10;101662.28;5087430;28;20056;-80